sensor_id;sensor_type;location;lat;lon;timestamp;P1;durP1;ratioP1;P2;durP2;ratioP2
21206;SDS011;10761;48.532;8.026;2023-07-30T00:01:14;7.18;;;4.30;;
21206;SDS011;10761;48.532;8.026;2023-07-30T00:03:40;5.13;;;3.40;;
21206;SDS011;10761;48.532;8.026;2023-07-30T00:06:05;4.35;;;3.33;;
21206;SDS011;10761;48.532;8.026;2023-07-30T00:08:31;4.32;;;3.65;;
21206;SDS011;10761;48.532;8.026;2023-07-30T00:10:57;4.78;;;3.92;;
21206;SDS011;10761;48.532;8.026;2023-07-30T00:13:23;6.05;;;3.55;;
21206;SDS011;10761;48.532;8.026;2023-07-30T00:15:50;3.83;;;3.22;;
21206;SDS011;10761;48.532;8.026;2023-07-30T00:18:15;3.45;;;3.15;;
21206;SDS011;10761;48.532;8.026;2023-07-30T00:20:41;5.05;;;2.80;;
21206;SDS011;10761;48.532;8.026;2023-07-30T00:23:07;3.75;;;2.90;;
21206;SDS011;10761;48.532;8.026;2023-07-30T00:25:32;5.03;;;3.00;;
21206;SDS011;10761;48.532;8.026;2023-07-30T00:27:58;3.35;;;3.03;;
21206;SDS011;10761;48.532;8.026;2023-07-30T00:30:24;6.47;;;2.92;;
21206;SDS011;10761;48.532;8.026;2023-07-30T00:32:50;3.83;;;3.03;;
21206;SDS011;10761;48.532;8.026;2023-07-30T00:35:15;5.10;;;3.00;;
21206;SDS011;10761;48.532;8.026;2023-07-30T00:37:41;3.97;;;2.70;;
21206;SDS011;10761;48.532;8.026;2023-07-30T00:40:07;6.25;;;3.20;;
21206;SDS011;10761;48.532;8.026;2023-07-30T00:42:33;5.50;;;2.70;;
21206;SDS011;10761;48.532;8.026;2023-07-30T00:44:58;3.13;;;2.83;;
21206;SDS011;10761;48.532;8.026;2023-07-30T00:47:24;4.68;;;2.88;;
21206;SDS011;10761;48.532;8.026;2023-07-30T00:49:51;2.85;;;2.45;;
21206;SDS011;10761;48.532;8.026;2023-07-30T00:52:18;3.30;;;2.78;;
21206;SDS011;10761;48.532;8.026;2023-07-30T00:54:45;4.57;;;2.80;;
21206;SDS011;10761;48.532;8.026;2023-07-30T00:57:13;3.38;;;2.38;;
21206;SDS011;10761;48.532;8.026;2023-07-30T00:59:40;3.55;;;2.42;;
21206;SDS011;10761;48.532;8.026;2023-07-30T01:02:06;4.25;;;2.60;;
21206;SDS011;10761;48.532;8.026;2023-07-30T01:04:32;2.78;;;2.58;;
21206;SDS011;10761;48.532;8.026;2023-07-30T01:06:57;4.88;;;2.38;;
21206;SDS011;10761;48.532;8.026;2023-07-30T01:09:23;5.05;;;2.78;;
21206;SDS011;10761;48.532;8.026;2023-07-30T01:11:49;2.63;;;2.40;;
21206;SDS011;10761;48.532;8.026;2023-07-30T01:14:16;4.97;;;2.60;;
21206;SDS011;10761;48.532;8.026;2023-07-30T01:16:44;8.50;;;2.80;;
21206;SDS011;10761;48.532;8.026;2023-07-30T01:19:09;4.25;;;2.22;;
21206;SDS011;10761;48.532;8.026;2023-07-30T01:21:35;3.25;;;2.65;;
21206;SDS011;10761;48.532;8.026;2023-07-30T01:24:01;2.70;;;2.50;;
21206;SDS011;10761;48.532;8.026;2023-07-30T01:26:31;2.85;;;2.40;;
21206;SDS011;10761;48.532;8.026;2023-07-30T01:29:13;2.40;;;2.20;;
21206;SDS011;10761;48.532;8.026;2023-07-30T01:31:45;4.18;;;2.50;;
21206;SDS011;10761;48.532;8.026;2023-07-30T01:34:15;2.70;;;2.50;;
21206;SDS011;10761;48.532;8.026;2023-07-30T01:36:41;5.93;;;2.30;;
21206;SDS011;10761;48.532;8.026;2023-07-30T01:39:08;2.65;;;2.40;;
21206;SDS011;10761;48.532;8.026;2023-07-30T01:41:34;2.50;;;2.13;;
21206;SDS011;10761;48.532;8.026;2023-07-30T01:44:00;2.63;;;2.30;;
21206;SDS011;10761;48.532;8.026;2023-07-30T01:46:26;3.45;;;2.08;;
21206;SDS011;10761;48.532;8.026;2023-07-30T01:48:51;4.63;;;2.47;;
21206;SDS011;10761;48.532;8.026;2023-07-30T01:51:17;2.42;;;2.00;;
21206;SDS011;10761;48.532;8.026;2023-07-30T01:53:42;3.92;;;2.05;;
21206;SDS011;10761;48.532;8.026;2023-07-30T01:56:08;3.88;;;2.20;;
21206;SDS011;10761;48.532;8.026;2023-07-30T01:58:34;3.72;;;2.10;;
21206;SDS011;10761;48.532;8.026;2023-07-30T02:00:59;2.10;;;1.90;;
21206;SDS011;10761;48.532;8.026;2023-07-30T02:03:25;2.30;;;2.03;;
21206;SDS011;10761;48.532;8.026;2023-07-30T02:05:50;2.17;;;1.88;;
21206;SDS011;10761;48.532;8.026;2023-07-30T02:08:16;2.63;;;2.42;;
21206;SDS011;10761;48.532;8.026;2023-07-30T02:10:41;4.80;;;2.10;;
21206;SDS011;10761;48.532;8.026;2023-07-30T02:13:07;2.33;;;2.13;;
21206;SDS011;10761;48.532;8.026;2023-07-30T02:15:32;2.45;;;2.03;;
21206;SDS011;10761;48.532;8.026;2023-07-30T02:17:58;2.85;;;2.40;;
21206;SDS011;10761;48.532;8.026;2023-07-30T02:20:24;3.15;;;2.60;;
21206;SDS011;10761;48.532;8.026;2023-07-30T02:22:49;2.53;;;2.00;;
21206;SDS011;10761;48.532;8.026;2023-07-30T02:25:15;2.95;;;2.35;;
21206;SDS011;10761;48.532;8.026;2023-07-30T02:27:40;3.95;;;2.70;;
21206;SDS011;10761;48.532;8.026;2023-07-30T02:30:06;4.55;;;2.35;;
21206;SDS011;10761;48.532;8.026;2023-07-30T02:32:32;2.42;;;2.08;;
21206;SDS011;10761;48.532;8.026;2023-07-30T02:34:57;3.00;;;2.17;;
21206;SDS011;10761;48.532;8.026;2023-07-30T02:37:23;3.28;;;2.33;;
21206;SDS011;10761;48.532;8.026;2023-07-30T02:39:48;2.45;;;2.05;;
21206;SDS011;10761;48.532;8.026;2023-07-30T02:42:14;2.63;;;2.22;;
21206;SDS011;10761;48.532;8.026;2023-07-30T02:44:40;3.30;;;2.35;;
21206;SDS011;10761;48.532;8.026;2023-07-30T02:47:05;3.38;;;2.17;;
21206;SDS011;10761;48.532;8.026;2023-07-30T02:49:31;2.85;;;2.03;;
21206;SDS011;10761;48.532;8.026;2023-07-30T02:51:56;3.88;;;2.10;;
21206;SDS011;10761;48.532;8.026;2023-07-30T02:54:22;3.35;;;2.30;;
21206;SDS011;10761;48.532;8.026;2023-07-30T02:56:47;2.25;;;2.10;;
21206;SDS011;10761;48.532;8.026;2023-07-30T02:59:13;2.03;;;1.90;;
21206;SDS011;10761;48.532;8.026;2023-07-30T03:01:39;2.13;;;1.90;;
21206;SDS011;10761;48.532;8.026;2023-07-30T03:04:04;3.90;;;2.13;;
21206;SDS011;10761;48.532;8.026;2023-07-30T03:06:30;2.65;;;2.17;;
21206;SDS011;10761;48.532;8.026;2023-07-30T03:08:56;3.05;;;1.95;;
21206;SDS011;10761;48.532;8.026;2023-07-30T03:11:22;3.47;;;1.77;;
21206;SDS011;10761;48.532;8.026;2023-07-30T03:13:48;2.63;;;2.08;;
21206;SDS011;10761;48.532;8.026;2023-07-30T03:16:13;1.90;;;1.70;;
21206;SDS011;10761;48.532;8.026;2023-07-30T03:18:39;2.10;;;1.90;;
21206;SDS011;10761;48.532;8.026;2023-07-30T03:21:04;1.73;;;1.42;;
21206;SDS011;10761;48.532;8.026;2023-07-30T03:23:30;2.97;;;1.52;;
21206;SDS011;10761;48.532;8.026;2023-07-30T03:25:56;1.92;;;1.52;;
21206;SDS011;10761;48.532;8.026;2023-07-30T03:28:23;1.70;;;1.60;;
21206;SDS011;10761;48.532;8.026;2023-07-30T03:30:48;1.50;;;1.40;;
21206;SDS011;10761;48.532;8.026;2023-07-30T03:33:14;1.88;;;1.70;;
21206;SDS011;10761;48.532;8.026;2023-07-30T03:35:40;1.70;;;1.60;;
21206;SDS011;10761;48.532;8.026;2023-07-30T03:38:05;1.63;;;1.50;;
21206;SDS011;10761;48.532;8.026;2023-07-30T03:40:31;1.88;;;1.30;;
21206;SDS011;10761;48.532;8.026;2023-07-30T03:42:57;2.80;;;1.45;;
21206;SDS011;10761;48.532;8.026;2023-07-30T03:45:22;2.45;;;1.50;;
21206;SDS011;10761;48.532;8.026;2023-07-30T03:47:48;3.30;;;1.60;;
21206;SDS011;10761;48.532;8.026;2023-07-30T03:50:13;2.58;;;1.63;;
21206;SDS011;10761;48.532;8.026;2023-07-30T03:52:39;1.52;;;1.42;;
21206;SDS011;10761;48.532;8.026;2023-07-30T03:55:05;2.15;;;1.60;;
21206;SDS011;10761;48.532;8.026;2023-07-30T03:57:30;1.85;;;1.55;;
21206;SDS011;10761;48.532;8.026;2023-07-30T03:59:56;3.25;;;1.65;;
21206;SDS011;10761;48.532;8.026;2023-07-30T04:02:22;3.10;;;1.73;;
21206;SDS011;10761;48.532;8.026;2023-07-30T04:04:47;3.25;;;2.10;;
21206;SDS011;10761;48.532;8.026;2023-07-30T04:07:14;2.75;;;2.20;;
21206;SDS011;10761;48.532;8.026;2023-07-30T04:09:39;2.53;;;2.08;;
21206;SDS011;10761;48.532;8.026;2023-07-30T04:12:05;3.33;;;2.30;;
21206;SDS011;10761;48.532;8.026;2023-07-30T04:14:31;2.53;;;2.10;;
21206;SDS011;10761;48.532;8.026;2023-07-30T04:16:56;3.55;;;2.17;;
21206;SDS011;10761;48.532;8.026;2023-07-30T04:19:22;2.42;;;2.10;;
21206;SDS011;10761;48.532;8.026;2023-07-30T04:21:47;2.80;;;2.30;;
21206;SDS011;10761;48.532;8.026;2023-07-30T04:24:13;7.18;;;2.50;;
21206;SDS011;10761;48.532;8.026;2023-07-30T04:26:38;2.63;;;2.10;;
21206;SDS011;10761;48.532;8.026;2023-07-30T04:29:04;2.10;;;1.90;;
21206;SDS011;10761;48.532;8.026;2023-07-30T04:31:30;4.70;;;1.95;;
21206;SDS011;10761;48.532;8.026;2023-07-30T04:33:57;2.47;;;1.98;;
21206;SDS011;10761;48.532;8.026;2023-07-30T04:36:23;3.00;;;2.25;;
21206;SDS011;10761;48.532;8.026;2023-07-30T04:38:48;2.45;;;2.25;;
21206;SDS011;10761;48.532;8.026;2023-07-30T04:41:14;3.28;;;2.25;;
21206;SDS011;10761;48.532;8.026;2023-07-30T04:43:40;2.67;;;2.00;;
21206;SDS011;10761;48.532;8.026;2023-07-30T04:46:05;2.50;;;2.28;;
21206;SDS011;10761;48.532;8.026;2023-07-30T04:48:31;3.75;;;2.00;;
21206;SDS011;10761;48.532;8.026;2023-07-30T04:50:56;3.10;;;2.13;;
21206;SDS011;10761;48.532;8.026;2023-07-30T04:53:22;3.05;;;2.60;;
21206;SDS011;10761;48.532;8.026;2023-07-30T04:55:48;3.60;;;2.10;;
21206;SDS011;10761;48.532;8.026;2023-07-30T04:58:13;2.83;;;2.30;;
21206;SDS011;10761;48.532;8.026;2023-07-30T05:00:39;2.40;;;2.20;;
21206;SDS011;10761;48.532;8.026;2023-07-30T05:03:04;5.25;;;2.28;;
21206;SDS011;10761;48.532;8.026;2023-07-30T05:05:30;2.63;;;2.28;;
21206;SDS011;10761;48.532;8.026;2023-07-30T05:07:55;2.45;;;2.20;;
21206;SDS011;10761;48.532;8.026;2023-07-30T05:10:21;2.50;;;2.10;;
21206;SDS011;10761;48.532;8.026;2023-07-30T05:12:47;3.10;;;2.28;;
21206;SDS011;10761;48.532;8.026;2023-07-30T05:15:12;3.05;;;1.88;;
21206;SDS011;10761;48.532;8.026;2023-07-30T05:17:38;3.03;;;1.98;;
21206;SDS011;10761;48.532;8.026;2023-07-30T05:20:04;3.05;;;2.38;;
21206;SDS011;10761;48.532;8.026;2023-07-30T05:22:30;2.35;;;1.85;;
21206;SDS011;10761;48.532;8.026;2023-07-30T05:24:55;5.05;;;2.00;;
21206;SDS011;10761;48.532;8.026;2023-07-30T05:27:21;2.22;;;1.98;;
21206;SDS011;10761;48.532;8.026;2023-07-30T05:29:47;2.00;;;1.90;;
21206;SDS011;10761;48.532;8.026;2023-07-30T05:32:13;2.15;;;1.90;;
21206;SDS011;10761;48.532;8.026;2023-07-30T05:34:39;2.25;;;1.95;;
21206;SDS011;10761;48.532;8.026;2023-07-30T05:37:05;3.50;;;1.90;;
21206;SDS011;10761;48.532;8.026;2023-07-30T05:39:30;3.70;;;2.05;;
21206;SDS011;10761;48.532;8.026;2023-07-30T05:41:56;2.67;;;2.33;;
21206;SDS011;10761;48.532;8.026;2023-07-30T05:44:21;2.58;;;2.22;;
21206;SDS011;10761;48.532;8.026;2023-07-30T05:46:47;2.17;;;1.98;;
21206;SDS011;10761;48.532;8.026;2023-07-30T05:49:13;4.53;;;2.22;;
21206;SDS011;10761;48.532;8.026;2023-07-30T05:51:39;2.58;;;2.20;;
21206;SDS011;10761;48.532;8.026;2023-07-30T05:54:05;5.82;;;2.40;;
21206;SDS011;10761;48.532;8.026;2023-07-30T05:56:30;5.55;;;3.00;;
21206;SDS011;10761;48.532;8.026;2023-07-30T05:58:56;3.55;;;3.25;;
21206;SDS011;10761;48.532;8.026;2023-07-30T06:01:22;4.65;;;3.28;;
21206;SDS011;10761;48.532;8.026;2023-07-30T06:03:51;3.22;;;2.92;;
21206;SDS011;10761;48.532;8.026;2023-07-30T06:06:16;4.53;;;3.10;;
21206;SDS011;10761;48.532;8.026;2023-07-30T06:08:42;3.45;;;3.15;;
21206;SDS011;10761;48.532;8.026;2023-07-30T06:11:07;4.65;;;3.17;;
21206;SDS011;10761;48.532;8.026;2023-07-30T06:13:33;3.13;;;2.78;;
21206;SDS011;10761;48.532;8.026;2023-07-30T06:15:59;2.67;;;2.47;;
21206;SDS011;10761;48.532;8.026;2023-07-30T06:18:24;4.05;;;2.42;;
21206;SDS011;10761;48.532;8.026;2023-07-30T06:20:50;3.15;;;2.83;;
21206;SDS011;10761;48.532;8.026;2023-07-30T06:23:15;2.85;;;2.45;;
21206;SDS011;10761;48.532;8.026;2023-07-30T06:25:41;4.97;;;2.53;;
21206;SDS011;10761;48.532;8.026;2023-07-30T06:28:06;3.05;;;2.50;;
21206;SDS011;10761;48.532;8.026;2023-07-30T06:30:32;3.53;;;2.60;;
21206;SDS011;10761;48.532;8.026;2023-07-30T06:32:58;2.70;;;2.50;;
21206;SDS011;10761;48.532;8.026;2023-07-30T06:35:23;3.50;;;2.50;;
21206;SDS011;10761;48.532;8.026;2023-07-30T06:37:50;4.32;;;2.53;;
21206;SDS011;10761;48.532;8.026;2023-07-30T06:40:15;6.30;;;2.50;;
21206;SDS011;10761;48.532;8.026;2023-07-30T06:42:41;2.80;;;2.60;;
21206;SDS011;10761;48.532;8.026;2023-07-30T06:45:07;5.53;;;2.75;;
21206;SDS011;10761;48.532;8.026;2023-07-30T06:47:33;4.03;;;2.42;;
21206;SDS011;10761;48.532;8.026;2023-07-30T06:49:59;2.45;;;2.25;;
21206;SDS011;10761;48.532;8.026;2023-07-30T06:52:24;4.07;;;2.47;;
21206;SDS011;10761;48.532;8.026;2023-07-30T06:54:50;2.42;;;2.22;;
21206;SDS011;10761;48.532;8.026;2023-07-30T06:57:15;4.40;;;2.60;;
21206;SDS011;10761;48.532;8.026;2023-07-30T06:59:41;4.32;;;2.20;;
21206;SDS011;10761;48.532;8.026;2023-07-30T07:02:07;3.05;;;2.28;;
21206;SDS011;10761;48.532;8.026;2023-07-30T07:04:32;2.35;;;2.15;;
21206;SDS011;10761;48.532;8.026;2023-07-30T07:06:58;2.67;;;2.28;;
21206;SDS011;10761;48.532;8.026;2023-07-30T07:09:23;3.58;;;2.70;;
21206;SDS011;10761;48.532;8.026;2023-07-30T07:11:49;2.88;;;2.40;;
21206;SDS011;10761;48.532;8.026;2023-07-30T07:14:15;3.05;;;1.98;;
21206;SDS011;10761;48.532;8.026;2023-07-30T07:16:41;3.25;;;2.13;;
21206;SDS011;10761;48.532;8.026;2023-07-30T07:19:06;3.13;;;2.40;;
21206;SDS011;10761;48.532;8.026;2023-07-30T07:21:32;2.67;;;1.70;;
21206;SDS011;10761;48.532;8.026;2023-07-30T07:23:57;2.95;;;2.10;;
21206;SDS011;10761;48.532;8.026;2023-07-30T07:26:23;2.28;;;2.08;;
21206;SDS011;10761;48.532;8.026;2023-07-30T07:28:48;3.88;;;2.30;;
21206;SDS011;10761;48.532;8.026;2023-07-30T07:31:14;2.75;;;2.25;;
21206;SDS011;10761;48.532;8.026;2023-07-30T07:33:39;2.00;;;1.90;;
21206;SDS011;10761;48.532;8.026;2023-07-30T07:36:06;3.47;;;2.38;;
21206;SDS011;10761;48.532;8.026;2023-07-30T07:38:32;3.75;;;2.20;;
21206;SDS011;10761;48.532;8.026;2023-07-30T07:40:59;2.92;;;2.35;;
21206;SDS011;10761;48.532;8.026;2023-07-30T07:43:25;4.28;;;2.42;;
21206;SDS011;10761;48.532;8.026;2023-07-30T07:45:51;3.47;;;2.08;;
21206;SDS011;10761;48.532;8.026;2023-07-30T07:48:17;6.05;;;2.05;;
21206;SDS011;10761;48.532;8.026;2023-07-30T07:50:42;4.50;;;2.28;;
21206;SDS011;10761;48.532;8.026;2023-07-30T07:53:08;4.20;;;2.60;;
21206;SDS011;10761;48.532;8.026;2023-07-30T07:55:33;4.72;;;2.72;;
21206;SDS011;10761;48.532;8.026;2023-07-30T07:57:59;2.70;;;2.42;;
21206;SDS011;10761;48.532;8.026;2023-07-30T08:00:25;5.72;;;2.60;;
21206;SDS011;10761;48.532;8.026;2023-07-30T08:02:50;4.90;;;2.40;;
21206;SDS011;10761;48.532;8.026;2023-07-30T08:05:16;3.03;;;2.42;;
21206;SDS011;10761;48.532;8.026;2023-07-30T08:07:44;5.28;;;2.33;;
21206;SDS011;10761;48.532;8.026;2023-07-30T08:10:13;5.68;;;2.28;;
21206;SDS011;10761;48.532;8.026;2023-07-30T08:12:39;2.90;;;2.08;;
21206;SDS011;10761;48.532;8.026;2023-07-30T08:15:04;4.05;;;2.17;;
21206;SDS011;10761;48.532;8.026;2023-07-30T08:17:30;2.45;;;2.10;;
21206;SDS011;10761;48.532;8.026;2023-07-30T08:19:56;3.38;;;2.20;;
21206;SDS011;10761;48.532;8.026;2023-07-30T08:22:21;2.60;;;2.40;;
21206;SDS011;10761;48.532;8.026;2023-07-30T08:24:47;2.30;;;2.10;;
21206;SDS011;10761;48.532;8.026;2023-07-30T08:27:13;2.42;;;2.10;;
21206;SDS011;10761;48.532;8.026;2023-07-30T08:29:39;2.88;;;2.42;;
21206;SDS011;10761;48.532;8.026;2023-07-30T08:32:04;2.75;;;2.15;;
21206;SDS011;10761;48.532;8.026;2023-07-30T08:34:30;3.05;;;2.17;;
21206;SDS011;10761;48.532;8.026;2023-07-30T08:36:56;5.03;;;2.13;;
21206;SDS011;10761;48.532;8.026;2023-07-30T08:39:21;2.92;;;1.80;;
21206;SDS011;10761;48.532;8.026;2023-07-30T08:41:47;4.55;;;2.00;;
21206;SDS011;10761;48.532;8.026;2023-07-30T08:44:12;2.83;;;1.80;;
21206;SDS011;10761;48.532;8.026;2023-07-30T08:46:38;4.00;;;1.80;;
21206;SDS011;10761;48.532;8.026;2023-07-30T08:49:04;4.78;;;1.92;;
21206;SDS011;10761;48.532;8.026;2023-07-30T08:51:30;2.22;;;1.65;;
21206;SDS011;10761;48.532;8.026;2023-07-30T08:53:59;3.22;;;1.75;;
21206;SDS011;10761;48.532;8.026;2023-07-30T08:56:25;2.00;;;1.63;;
21206;SDS011;10761;48.532;8.026;2023-07-30T08:58:52;2.88;;;1.52;;
21206;SDS011;10761;48.532;8.026;2023-07-30T09:01:22;2.60;;;1.40;;
21206;SDS011;10761;48.532;8.026;2023-07-30T09:03:56;2.95;;;1.52;;
21206;SDS011;10761;48.532;8.026;2023-07-30T09:06:25;2.67;;;1.67;;
21206;SDS011;10761;48.532;8.026;2023-07-30T09:08:50;1.80;;;1.50;;
21206;SDS011;10761;48.532;8.026;2023-07-30T09:11:16;2.30;;;1.50;;
21206;SDS011;10761;48.532;8.026;2023-07-30T09:13:42;4.13;;;1.85;;
21206;SDS011;10761;48.532;8.026;2023-07-30T09:16:08;4.45;;;2.20;;
21206;SDS011;10761;48.532;8.026;2023-07-30T09:18:41;3.13;;;1.52;;
21206;SDS011;10761;48.532;8.026;2023-07-30T09:21:10;2.75;;;1.70;;
21206;SDS011;10761;48.532;8.026;2023-07-30T09:23:40;1.85;;;1.58;;
21206;SDS011;10761;48.532;8.026;2023-07-30T09:26:07;3.17;;;1.58;;
21206;SDS011;10761;48.532;8.026;2023-07-30T09:28:33;3.78;;;1.67;;
21206;SDS011;10761;48.532;8.026;2023-07-30T09:31:02;2.15;;;1.70;;
21206;SDS011;10761;48.532;8.026;2023-07-30T09:33:28;2.00;;;1.60;;
21206;SDS011;10761;48.532;8.026;2023-07-30T09:35:55;4.00;;;1.67;;
21206;SDS011;10761;48.532;8.026;2023-07-30T09:38:21;3.10;;;1.60;;
21206;SDS011;10761;48.532;8.026;2023-07-30T09:40:47;2.03;;;1.45;;
21206;SDS011;10761;48.532;8.026;2023-07-30T09:43:14;2.28;;;1.50;;
21206;SDS011;10761;48.532;8.026;2023-07-30T09:45:43;4.00;;;2.22;;
21206;SDS011;10761;48.532;8.026;2023-07-30T09:48:12;1.83;;;1.35;;
21206;SDS011;10761;48.532;8.026;2023-07-30T09:50:39;5.28;;;1.80;;
21206;SDS011;10761;48.532;8.026;2023-07-30T09:53:06;2.70;;;1.52;;
21206;SDS011;10761;48.532;8.026;2023-07-30T09:55:33;2.45;;;1.60;;
21206;SDS011;10761;48.532;8.026;2023-07-30T09:57:59;4.70;;;1.58;;
21206;SDS011;10761;48.532;8.026;2023-07-30T10:00:25;3.00;;;1.70;;
21206;SDS011;10761;48.532;8.026;2023-07-30T10:02:54;2.33;;;1.80;;
21206;SDS011;10761;48.532;8.026;2023-07-30T10:05:23;1.63;;;1.52;;
21206;SDS011;10761;48.532;8.026;2023-07-30T10:07:59;3.20;;;1.67;;
21206;SDS011;10761;48.532;8.026;2023-07-30T10:10:28;2.55;;;1.63;;
21206;SDS011;10761;48.532;8.026;2023-07-30T10:12:57;7.05;;;1.80;;
21206;SDS011;10761;48.532;8.026;2023-07-30T10:15:25;4.38;;;1.80;;
21206;SDS011;10761;48.532;8.026;2023-07-30T10:17:51;2.45;;;1.83;;
21206;SDS011;10761;48.532;8.026;2023-07-30T10:20:20;1.73;;;1.60;;
21206;SDS011;10761;48.532;8.026;2023-07-30T10:22:50;4.75;;;1.50;;
21206;SDS011;10761;48.532;8.026;2023-07-30T10:25:16;2.97;;;1.63;;
21206;SDS011;10761;48.532;8.026;2023-07-30T10:27:48;2.33;;;1.50;;
21206;SDS011;10761;48.532;8.026;2023-07-30T10:30:18;4.13;;;2.08;;
21206;SDS011;10761;48.532;8.026;2023-07-30T10:33:04;2.97;;;1.85;;
21206;SDS011;10761;48.532;8.026;2023-07-30T10:35:46;2.88;;;1.80;;
21206;SDS011;10761;48.532;8.026;2023-07-30T10:43:45;3.35;;;1.70;;
21206;SDS011;10761;48.532;8.026;2023-07-30T10:46:12;3.00;;;1.50;;
21206;SDS011;10761;48.532;8.026;2023-07-30T10:48:41;4.05;;;2.03;;
21206;SDS011;10761;48.532;8.026;2023-07-30T10:51:08;4.13;;;2.10;;
21206;SDS011;10761;48.532;8.026;2023-07-30T10:53:35;3.00;;;2.00;;
21206;SDS011;10761;48.532;8.026;2023-07-30T10:56:02;2.33;;;1.70;;
21206;SDS011;10761;48.532;8.026;2023-07-30T10:58:32;2.90;;;1.92;;
21206;SDS011;10761;48.532;8.026;2023-07-30T11:01:03;5.13;;;1.90;;
21206;SDS011;10761;48.532;8.026;2023-07-30T11:03:30;4.22;;;1.90;;
21206;SDS011;10761;48.532;8.026;2023-07-30T11:05:56;5.60;;;2.30;;
21206;SDS011;10761;48.532;8.026;2023-07-30T11:08:38;3.78;;;1.77;;
21206;SDS011;10761;48.532;8.026;2023-07-30T11:11:06;3.05;;;1.85;;
21206;SDS011;10761;48.532;8.026;2023-07-30T11:13:42;4.07;;;1.52;;
21206;SDS011;10761;48.532;8.026;2023-07-30T11:16:11;4.55;;;1.40;;
21206;SDS011;10761;48.532;8.026;2023-07-30T11:18:37;2.05;;;1.40;;
21206;SDS011;10761;48.532;8.026;2023-07-30T11:21:10;2.72;;;1.63;;
21206;SDS011;10761;48.532;8.026;2023-07-30T11:23:39;1.83;;;1.55;;
21206;SDS011;10761;48.532;8.026;2023-07-30T11:26:07;1.50;;;1.20;;
21206;SDS011;10761;48.532;8.026;2023-07-30T11:28:34;2.85;;;1.67;;
21206;SDS011;10761;48.532;8.026;2023-07-30T11:33:33;3.28;;;1.52;;
21206;SDS011;10761;48.532;8.026;2023-07-30T11:36:02;2.85;;;1.77;;
21206;SDS011;10761;48.532;8.026;2023-07-30T11:38:28;5.68;;;1.65;;
21206;SDS011;10761;48.532;8.026;2023-07-30T11:40:55;2.90;;;1.95;;
21206;SDS011;10761;48.532;8.026;2023-07-30T11:43:22;4.85;;;1.67;;
21206;SDS011;10761;48.532;8.026;2023-07-30T11:45:48;4.90;;;1.80;;
21206;SDS011;10761;48.532;8.026;2023-07-30T11:48:30;4.63;;;1.83;;
21206;SDS011;10761;48.532;8.026;2023-07-30T11:50:56;2.83;;;1.60;;
21206;SDS011;10761;48.532;8.026;2023-07-30T11:53:21;5.72;;;1.70;;
21206;SDS011;10761;48.532;8.026;2023-07-30T11:55:47;2.70;;;1.80;;
21206;SDS011;10761;48.532;8.026;2023-07-30T11:58:13;3.17;;;1.73;;
21206;SDS011;10761;48.532;8.026;2023-07-30T12:00:40;2.38;;;1.60;;
21206;SDS011;10761;48.532;8.026;2023-07-30T12:03:09;2.50;;;1.65;;
21206;SDS011;10761;48.532;8.026;2023-07-30T12:05:39;2.42;;;1.48;;
21206;SDS011;10761;48.532;8.026;2023-07-30T12:08:05;1.63;;;1.20;;
21206;SDS011;10761;48.532;8.026;2023-07-30T12:10:42;3.58;;;1.52;;
21206;SDS011;10761;48.532;8.026;2023-07-30T12:13:16;2.67;;;1.40;;
21206;SDS011;10761;48.532;8.026;2023-07-30T12:16:03;5.78;;;1.45;;
21206;SDS011;10761;48.532;8.026;2023-07-30T12:18:28;2.80;;;1.52;;
21206;SDS011;10761;48.532;8.026;2023-07-30T12:20:54;3.20;;;1.75;;
21206;SDS011;10761;48.532;8.026;2023-07-30T12:23:21;4.22;;;1.52;;
21206;SDS011;10761;48.532;8.026;2023-07-30T12:25:47;5.72;;;1.90;;
21206;SDS011;10761;48.532;8.026;2023-07-30T12:28:12;2.90;;;1.52;;
21206;SDS011;10761;48.532;8.026;2023-07-30T12:30:38;4.10;;;1.60;;
21206;SDS011;10761;48.532;8.026;2023-07-30T12:33:04;5.43;;;1.63;;
21206;SDS011;10761;48.532;8.026;2023-07-30T12:35:31;6.97;;;1.63;;
21206;SDS011;10761;48.532;8.026;2023-07-30T12:37:58;2.63;;;1.63;;
21206;SDS011;10761;48.532;8.026;2023-07-30T12:40:26;6.85;;;2.20;;
21206;SDS011;10761;48.532;8.026;2023-07-30T12:42:54;5.10;;;1.70;;
21206;SDS011;10761;48.532;8.026;2023-07-30T12:45:20;5.40;;;1.80;;
21206;SDS011;10761;48.532;8.026;2023-07-30T12:47:46;4.40;;;1.75;;
21206;SDS011;10761;48.532;8.026;2023-07-30T12:50:12;6.03;;;1.75;;
21206;SDS011;10761;48.532;8.026;2023-07-30T12:52:37;3.28;;;1.38;;
21206;SDS011;10761;48.532;8.026;2023-07-30T12:55:03;1.80;;;1.25;;
21206;SDS011;10761;48.532;8.026;2023-07-30T12:57:29;3.17;;;1.40;;
21206;SDS011;10761;48.532;8.026;2023-07-30T12:59:55;3.63;;;1.50;;
21206;SDS011;10761;48.532;8.026;2023-07-30T13:02:21;2.55;;;1.10;;
21206;SDS011;10761;48.532;8.026;2023-07-30T13:04:46;4.80;;;1.30;;
21206;SDS011;10761;48.532;8.026;2023-07-30T13:07:12;3.30;;;1.50;;
21206;SDS011;10761;48.532;8.026;2023-07-30T13:09:38;5.75;;;1.50;;
21206;SDS011;10761;48.532;8.026;2023-07-30T13:12:03;2.97;;;1.40;;
21206;SDS011;10761;48.532;8.026;2023-07-30T13:14:29;5.15;;;1.40;;
21206;SDS011;10761;48.532;8.026;2023-07-30T13:16:55;4.43;;;1.20;;
21206;SDS011;10761;48.532;8.026;2023-07-30T13:19:20;4.47;;;1.48;;
21206;SDS011;10761;48.532;8.026;2023-07-30T13:21:46;3.97;;;1.55;;
21206;SDS011;10761;48.532;8.026;2023-07-30T13:24:11;3.22;;;1.40;;
21206;SDS011;10761;48.532;8.026;2023-07-30T13:26:37;2.78;;;1.20;;
21206;SDS011;10761;48.532;8.026;2023-07-30T13:29:03;5.88;;;1.20;;
21206;SDS011;10761;48.532;8.026;2023-07-30T13:31:29;3.55;;;1.58;;
21206;SDS011;10761;48.532;8.026;2023-07-30T13:33:55;3.42;;;1.13;;
21206;SDS011;10761;48.532;8.026;2023-07-30T13:36:21;2.58;;;1.42;;
21206;SDS011;10761;48.532;8.026;2023-07-30T13:38:46;3.42;;;1.85;;
21206;SDS011;10761;48.532;8.026;2023-07-30T13:41:12;4.03;;;1.35;;
21206;SDS011;10761;48.532;8.026;2023-07-30T13:43:38;2.60;;;1.33;;
21206;SDS011;10761;48.532;8.026;2023-07-30T13:46:03;3.58;;;1.40;;
21206;SDS011;10761;48.532;8.026;2023-07-30T13:48:29;3.60;;;1.20;;
21206;SDS011;10761;48.532;8.026;2023-07-30T13:50:54;3.85;;;1.25;;
21206;SDS011;10761;48.532;8.026;2023-07-30T13:53:20;4.35;;;1.30;;
21206;SDS011;10761;48.532;8.026;2023-07-30T13:55:46;4.00;;;1.10;;
21206;SDS011;10761;48.532;8.026;2023-07-30T13:58:11;3.63;;;1.35;;
21206;SDS011;10761;48.532;8.026;2023-07-30T14:00:39;4.60;;;1.40;;
21206;SDS011;10761;48.532;8.026;2023-07-30T14:03:06;4.47;;;1.63;;
21206;SDS011;10761;48.532;8.026;2023-07-30T14:05:31;3.67;;;1.20;;
21206;SDS011;10761;48.532;8.026;2023-07-30T14:07:57;2.95;;;1.38;;
21206;SDS011;10761;48.532;8.026;2023-07-30T14:10:23;4.47;;;1.20;;
21206;SDS011;10761;48.532;8.026;2023-07-30T14:12:49;3.92;;;1.05;;
21206;SDS011;10761;48.532;8.026;2023-07-30T14:15:15;4.20;;;1.33;;
21206;SDS011;10761;48.532;8.026;2023-07-30T14:17:41;2.97;;;1.20;;
21206;SDS011;10761;48.532;8.026;2023-07-30T14:20:06;2.80;;;1.20;;
21206;SDS011;10761;48.532;8.026;2023-07-30T14:22:33;4.30;;;1.20;;
21206;SDS011;10761;48.532;8.026;2023-07-30T14:25:00;5.55;;;1.33;;
21206;SDS011;10761;48.532;8.026;2023-07-30T14:27:26;4.18;;;1.33;;
21206;SDS011;10761;48.532;8.026;2023-07-30T14:29:51;5.47;;;1.20;;
21206;SDS011;10761;48.532;8.026;2023-07-30T14:32:18;4.65;;;1.55;;
21206;SDS011;10761;48.532;8.026;2023-07-30T14:34:45;3.83;;;1.55;;
21206;SDS011;10761;48.532;8.026;2023-07-30T14:37:10;3.15;;;1.30;;
21206;SDS011;10761;48.532;8.026;2023-07-30T14:39:36;5.63;;;1.27;;
21206;SDS011;10761;48.532;8.026;2023-07-30T14:42:02;2.83;;;1.33;;
21206;SDS011;10761;48.532;8.026;2023-07-30T14:44:28;1.70;;;1.20;;
21206;SDS011;10761;48.532;8.026;2023-07-30T14:46:53;3.70;;;1.13;;
21206;SDS011;10761;48.532;8.026;2023-07-30T14:49:19;4.28;;;0.90;;
21206;SDS011;10761;48.532;8.026;2023-07-30T14:51:45;4.07;;;1.30;;